Time;durP1;ratioP1;P1;durP2;ratioP2;P2;SDS_P1;SDS_P2;PMS_P1;PMS_P2;Temp;Humidity;BMP_temperature;BMP_pressure;BME280_temperature;BME280_humidity;BME280_pressure;Samples;Min_cycle;Max_cycle;Signal;HPM_P1;HPM_P2
2021/11/08 00:02:21;;;;;;;10.43;2.87;;;8.90;99.90;;;;;;5073578;28;20547;-85
2021/11/08 00:04:47;;;;;;;8.70;2.13;;;8.90;99.90;;;;;;5073357;28;20451;-85
2021/11/08 00:07:15;;;;;;;11.70;3.33;;;8.90;99.90;;;;;;5073220;28;20493;-85
2021/11/08 00:09:43;;;;;;;11.23;2.70;;;8.90;99.90;;;;;;5073102;28;20527;-85
2021/11/08 00:12:11;;;;;;;9.50;2.57;;;8.90;99.90;;;;;;5072846;28;20447;-84
2021/11/08 00:14:38;;;;;;;11.60;2.37;;;8.90;99.90;;;;;;5073276;28;20472;-85
2021/11/08 00:17:14;;;;;;;10.53;3.20;;;8.90;99.90;;;;;;5073193;28;20517;-85
2021/11/08 00:19:51;;;;;;;11.50;2.40;;;8.90;99.90;;;;;;5073013;28;20505;-84
2021/11/08 00:22:18;;;;;;;8.07;2.37;;;8.80;99.90;;;;;;5072928;28;20873;-84
2021/11/08 00:24:48;;;;;;;9.60;2.47;;;8.80;99.90;;;;;;5073096;28;20483;-84
2021/11/08 00:27:15;;;;;;;6.73;2.43;;;8.80;99.90;;;;;;5072677;28;20482;-84
2021/11/08 00:29:42;;;;;;;16.50;5.27;;;8.80;99.90;;;;;;5072745;28;20542;-84
2021/11/08 00:32:10;;;;;;;8.33;3.30;;;8.80;99.90;;;;;;5072411;28;20462;-84
2021/11/08 00:34:37;;;;;;;13.40;2.63;;;8.70;99.90;;;;;;5072530;28;20539;-84
2021/11/08 00:37:04;;;;;;;7.17;2.60;;;8.80;99.90;;;;;;5073486;28;20478;-84
2021/11/08 00:39:31;;;;;;;7.93;2.80;;;8.80;99.90;;;;;;5075303;28;20539;-84
2021/11/08 00:41:58;;;;;;;9.17;2.60;;;8.70;99.90;;;;;;5072397;28;20579;-84
2021/11/08 00:44:25;;;;;;;5.67;1.97;;;8.80;99.90;;;;;;5072245;28;20501;-84
2021/11/08 00:46:52;;;;;;;7.17;2.60;;;8.80;99.90;;;;;;5071985;28;20458;-84
2021/11/08 00:49:20;;;;;;;5.47;2.67;;;8.80;99.90;;;;;;5072326;28;20494;-83
2021/11/08 00:51:46;;;;;;;5.27;2.47;;;8.80;99.90;;;;;;5072277;28;20550;-85
2021/11/08 00:54:15;;;;;;;7.53;1.97;;;8.80;99.90;;;;;;5071764;28;20459;-89
2021/11/08 00:56:45;;;;;;;10.10;2.83;;;8.80;99.90;;;;;;5072466;28;20474;-84
2021/11/08 00:59:13;;;;;;;9.17;2.57;;;8.80;99.90;;;;;;5064238;28;20457;-84
2021/11/08 01:01:40;;;;;;;13.27;3.37;;;8.70;99.90;;;;;;5072033;28;20977;-83
2021/11/08 01:04:08;;;;;;;10.40;3.03;;;8.70;99.90;;;;;;5069060;28;20939;-84
2021/11/08 01:06:36;;;;;;;14.80;2.57;;;8.70;99.90;;;;;;5072417;28;20496;-83
2021/11/08 01:09:04;;;;;;;7.87;2.90;;;8.70;99.90;;;;;;5072261;28;20463;-84
2021/11/08 01:11:31;;;;;;;6.07;3.20;;;8.70;99.90;;;;;;5072140;28;21054;-84
2021/11/08 01:13:57;;;;;;;7.50;2.80;;;8.70;99.90;;;;;;5072254;28;21023;-84
2021/11/08 01:16:25;;;;;;;9.23;2.27;;;8.70;99.90;;;;;;5074224;28;20538;-84
2021/11/08 01:18:54;;;;;;;5.10;2.00;;;8.80;99.90;;;;;;5071874;28;20439;-84
2021/11/08 01:21:21;;;;;;;9.87;2.00;;;8.80;99.90;;;;;;5072602;28;20479;-83
2021/11/08 01:23:49;;;;;;;9.57;2.63;;;8.80;99.90;;;;;;5072377;28;20481;-82
2021/11/08 01:26:16;;;;;;;19.97;3.17;;;8.80;99.90;;;;;;5072662;28;20471;-85
2021/11/08 01:28:45;;;;;;;8.13;2.80;;;8.80;99.90;;;;;;5073060;28;20505;-84
2021/11/08 01:31:12;;;;;;;11.47;3.40;;;8.80;99.90;;;;;;5072816;28;20451;-84
2021/11/08 01:33:44;;;;;;;10.13;2.87;;;8.90;99.90;;;;;;5073169;28;20456;-85
2021/11/08 01:36:14;;;;;;;10.87;2.30;;;8.90;99.90;;;;;;5072806;28;20934;-85
2021/11/08 01:38:44;;;;;;;7.00;2.67;;;8.90;99.90;;;;;;5078927;28;20447;-85
2021/11/08 01:41:14;;;;;;;11.67;2.50;;;8.90;99.90;;;;;;5072900;28;20473;-86
2021/11/08 01:43:42;;;;;;;9.67;2.73;;;9.00;99.90;;;;;;5072876;28;20448;-86
2021/11/08 01:46:09;;;;;;;17.27;3.20;;;8.90;99.90;;;;;;5072693;28;20443;-84
2021/11/08 01:48:36;;;;;;;5.53;1.73;;;8.90;99.90;;;;;;5072757;28;20443;-84
2021/11/08 01:51:03;;;;;;;8.87;4.13;;;8.90;99.90;;;;;;5072311;28;20543;-83
2021/11/08 01:53:30;;;;;;;11.07;2.90;;;8.90;99.90;;;;;;5072487;28;20530;-83
2021/11/08 01:55:57;;;;;;;9.60;3.10;;;8.80;99.90;;;;;;5088352;28;20525;-83
2021/11/08 01:58:27;;;;;;;6.00;2.30;;;8.80;99.90;;;;;;5071803;28;20435;-83
2021/11/08 02:00:56;;;;;;;12.33;2.20;;;8.80;99.90;;;;;;5072056;28;20475;-83
2021/11/08 02:03:23;;;;;;;12.23;2.50;;;8.80;99.90;;;;;;5072299;28;20939;-83
2021/11/08 02:05:49;;;;;;;6.37;3.13;;;8.80;99.90;;;;;;5071875;28;20538;-84
2021/11/08 02:08:17;;;;;;;10.63;2.30;;;8.80;99.90;;;;;;5072205;28;20451;-85
2021/11/08 02:10:45;;;;;;;9.40;2.87;;;8.80;99.90;;;;;;5072051;28;20454;-85
2021/11/08 02:13:11;;;;;;;6.77;2.17;;;8.70;99.90;;;;;;5072630;28;20526;-86
2021/11/08 02:15:39;;;;;;;7.40;2.20;;;8.80;99.90;;;;;;5072041;28;20455;-86
2021/11/08 02:18:10;;;;;;;9.73;3.03;;;8.80;99.90;;;;;;5073242;28;20456;-86
2021/11/08 02:20:41;;;;;;;8.20;2.07;;;8.80;99.90;;;;;;5075816;28;20463;-86
2021/11/08 02:23:08;;;;;;;7.90;3.10;;;8.80;99.90;;;;;;5076132;28;20823;-87
2021/11/08 02:25:37;;;;;;;10.20;2.57;;;8.80;99.90;;;;;;5076192;28;20511;-87
2021/11/08 02:28:05;;;;;;;8.20;2.70;;;8.80;99.90;;;;;;5076083;28;20957;-87
2021/11/08 02:30:35;;;;;;;7.80;2.50;;;8.80;99.90;;;;;;5075632;28;20447;-84
2021/11/08 02:33:01;;;;;;;5.93;2.30;;;8.80;99.90;;;;;;5075403;28;20439;-84
2021/11/08 02:35:29;;;;;;;11.23;3.47;;;8.80;99.90;;;;;;5075920;28;20439;-86
2021/11/08 02:37:57;;;;;;;6.77;3.33;;;8.80;99.90;;;;;;5075680;28;20969;-86
2021/11/08 02:40:25;;;;;;;4.10;2.17;;;8.80;99.90;;;;;;5076203;28;20440;-86
2021/11/08 02:42:58;;;;;;;7.97;2.50;;;8.80;99.90;;;;;;5075974;28;20443;-86
2021/11/08 02:45:26;;;;;;;8.03;2.80;;;8.80;99.90;;;;;;5075675;28;20448;-86
2021/11/08 02:47:55;;;;;;;12.40;3.17;;;8.80;99.90;;;;;;5075663;28;20454;-86
2021/11/08 02:50:24;;;;;;;6.67;2.50;;;8.80;99.90;;;;;;5075629;28;20474;-89
2021/11/08 02:52:52;;;;;;;7.70;2.80;;;8.80;99.90;;;;;;5075821;28;20471;-85
2021/11/08 02:55:23;;;;;;;11.47;2.63;;;8.80;99.90;;;;;;5088750;28;20457;-83
2021/11/08 02:57:51;;;;;;;15.93;2.80;;;8.80;99.90;;;;;;5077220;28;20454;-85
2021/11/08 03:00:20;;;;;;;7.03;2.67;;;8.90;99.90;;;;;;5075130;28;20452;-84
2021/11/08 03:02:47;;;;;;;7.03;2.50;;;8.90;99.90;;;;;;5075164;28;20548;-85
2021/11/08 03:05:15;;;;;;;10.60;3.43;;;8.80;99.90;;;;;;5075159;28;20454;-85
2021/11/08 03:07:43;;;;;;;10.60;2.63;;;8.90;99.90;;;;;;5075326;28;20543;-84
2021/11/08 03:10:13;;;;;;;11.17;2.50;;;8.90;99.90;;;;;;5074990;28;20459;-84
2021/11/08 03:12:41;;;;;;;6.57;2.00;;;8.90;99.90;;;;;;5074898;28;20460;-84
2021/11/08 03:15:11;;;;;;;9.97;2.20;;;8.90;99.90;;;;;;5074904;28;20497;-84
2021/11/08 03:17:41;;;;;;;9.03;2.60;;;8.90;99.90;;;;;;5074791;28;20440;-84
2021/11/08 03:20:11;;;;;;;10.03;2.50;;;8.90;99.90;;;;;;5058466;28;20448;-84
2021/11/08 03:22:39;;;;;;;5.30;2.10;;;8.90;99.90;;;;;;5074620;28;20555;-84
2021/11/08 03:25:12;;;;;;;5.27;2.50;;;8.90;99.90;;;;;;5074563;28;20465;-85
2021/11/08 03:27:49;;;;;;;9.47;2.33;;;8.90;99.90;;;;;;5074735;28;20538;-85
2021/11/08 03:30:21;;;;;;;5.97;2.50;;;8.90;99.90;;;;;;5058524;28;20466;-84
2021/11/08 03:32:49;;;;;;;8.87;2.57;;;8.90;99.90;;;;;;5074296;28;20443;-84
2021/11/08 03:35:20;;;;;;;7.60;2.13;;;8.90;99.90;;;;;;5074184;28;20530;-84
2021/11/08 03:37:46;;;;;;;6.63;2.83;;;9.00;99.90;;;;;;5074586;28;20462;-86
2021/11/08 03:40:17;;;;;;;10.60;1.97;;;8.90;99.90;;;;;;5074601;28;20489;-87
2021/11/08 03:42:44;;;;;;;14.50;2.90;;;8.90;99.90;;;;;;5075019;28;20566;-84
2021/11/08 03:45:11;;;;;;;5.17;2.07;;;8.90;99.90;;;;;;5074635;28;20862;-84
2021/11/08 03:47:39;;;;;;;8.27;2.50;;;8.90;99.90;;;;;;5074122;28;20981;-84
2021/11/08 03:50:08;;;;;;;4.10;2.07;;;8.90;99.90;;;;;;5074168;28;20479;-84
2021/11/08 03:52:35;;;;;;;8.67;2.37;;;8.90;99.90;;;;;;5074221;28;20451;-85
2021/11/08 03:55:03;;;;;;;4.50;1.70;;;8.90;99.90;;;;;;5074390;28;20963;-85
2021/11/08 03:57:30;;;;;;;6.33;1.90;;;8.90;99.90;;;;;;5073420;28;20934;-85
2021/11/08 03:59:56;;;;;;;5.17;2.47;;;8.90;99.90;;;;;;5074067;28;20450;-86
2021/11/08 04:02:23;;;;;;;8.10;2.30;;;9.00;99.90;;;;;;5073695;28;20574;-85
2021/11/08 04:04:51;;;;;;;4.73;1.93;;;9.00;99.90;;;;;;5073826;28;20447;-85
2021/11/08 04:07:19;;;;;;;6.10;2.43;;;9.00;99.90;;;;;;5073672;28;20530;-85
2021/11/08 04:09:45;;;;;;;3.67;1.87;;;9.00;99.90;;;;;;5073724;28;20448;-85
2021/11/08 04:12:12;;;;;;;7.93;2.67;;;9.00;99.90;;;;;;5073458;28;20443;-84
2021/11/08 04:14:42;;;;;;;7.13;2.10;;;9.00;99.90;;;;;;5073539;28;20527;-84
2021/11/08 04:17:08;;;;;;;5.63;2.13;;;9.00;99.90;;;;;;5073815;28;20467;-84
2021/11/08 04:19:35;;;;;;;10.07;2.93;;;9.00;99.90;;;;;;5073861;28;20861;-84
2021/11/08 04:22:04;;;;;;;6.50;2.70;;;9.00;99.90;;;;;;5083036;28;20495;-84
2021/11/08 04:24:31;;;;;;;4.70;2.53;;;9.00;99.90;;;;;;5073548;28;20883;-84
2021/11/08 04:26:57;;;;;;;9.40;3.40;;;9.00;99.90;;;;;;5073074;28;20467;-84
2021/11/08 04:29:24;;;;;;;13.83;2.87;;;9.00;99.90;;;;;;5073353;28;20530;-84
2021/11/08 04:31:52;;;;;;;12.00;3.67;;;9.10;99.90;;;;;;5073102;28;20942;-84
2021/11/08 04:34:22;;;;;;;10.13;3.10;;;9.00;99.90;;;;;;5073070;28;20966;-84
2021/11/08 04:40:06;;;;;;;6.30;2.60;;;9.00;99.90;;;;;;4991550;28;20451;-84
2021/11/08 04:42:36;;;;;;;5.97;2.80;;;9.00;99.90;;;;;;4986190;28;20472;-83
2021/11/08 04:45:20;;;;;;;7.00;2.33;;;9.00;99.90;;;;;;5029795;28;20826;-83
2021/11/08 04:48:07;;;;;;;7.47;2.83;;;9.00;99.90;;;;;;5073008;28;20454;-85
2021/11/08 04:50:39;;;;;;;8.27;2.87;;;9.00;99.90;;;;;;5073590;28;20455;-85
2021/11/08 04:53:15;;;;;;;12.07;3.63;;;9.10;99.90;;;;;;5072758;28;20465;-86
2021/11/08 04:56:08;;;;;;;9.83;3.00;;;9.00;99.90;;;;;;5073308;28;20922;-86
2021/11/08 05:23:43;;;;;;;8.83;3.43;;;9.10;99.90;;;;;;5072801;28;20923;-83
2021/11/08 05:31:39;;;;;;;7.00;2.33;;;9.20;99.90;;;;;;5072662;28;20446;-84
2021/11/08 05:34:06;;;;;;;5.07;2.60;;;9.20;99.90;;;;;;5072747;28;20447;-83
2021/11/08 05:36:33;;;;;;;12.10;4.20;;;9.20;99.90;;;;;;5072649;28;20476;-84
2021/11/08 05:39:00;;;;;;;9.17;3.07;;;9.20;99.90;;;;;;5072823;28;20906;-83
2021/11/08 05:41:27;;;;;;;9.30;3.03;;;9.20;99.90;;;;;;5072330;28;20999;-83
2021/11/08 05:43:55;;;;;;;11.30;3.00;;;9.20;99.90;;;;;;5072453;28;20531;-84
2021/11/08 05:46:22;;;;;;;7.13;3.33;;;9.20;99.90;;;;;;5072944;28;20474;-84
2021/11/08 05:48:51;;;;;;;8.33;2.87;;;9.20;99.90;;;;;;5072788;28;20474;-85
2021/11/08 05:51:17;;;;;;;11.07;3.23;;;9.20;99.90;;;;;;5072877;28;20486;-84
2021/11/08 05:53:45;;;;;;;11.03;2.97;;;9.20;99.90;;;;;;5073918;28;20530;-84
2021/11/08 05:56:16;;;;;;;16.07;3.93;;;9.20;99.90;;;;;;5087287;28;20487;-85
2021/11/08 05:59:01;;;;;;;10.33;3.60;;;9.20;99.90;;;;;;5076463;28;21008;-83
2021/11/08 06:12:53;;;;;;;5.20;2.50;;;9.20;99.90;;;;;;5076114;28;20470;-83
2021/11/08 06:51:21;;;;;;;13.90;3.33;;;9.40;99.90;;;;;;5075258;28;20450;-83
2021/11/08 06:53:49;;;;;;;8.20;2.97;;;9.50;99.90;;;;;;5075192;28;20452;-84
2021/11/08 06:56:22;;;;;;;10.67;3.43;;;9.30;99.90;;;;;;5075307;28;20452;-84
2021/11/08 06:58:49;;;;;;;8.67;2.80;;;9.50;99.90;;;;;;5075505;28;20447;-85
2021/11/08 07:01:16;;;;;;;22.90;4.30;;;9.50;99.90;;;;;;5075486;28;20475;-84
2021/11/08 07:03:42;;;;;;;13.27;3.17;;;9.50;99.90;;;;;;5074607;28;20517;-84
2021/11/08 07:06:09;;;;;;;11.07;2.93;;;9.50;99.90;;;;;;5074299;28;20479;-85
2021/11/08 07:08:36;;;;;;;13.40;3.47;;;9.60;99.90;;;;;;5074001;28;20451;-83
2021/11/08 07:11:03;;;;;;;11.40;3.10;;;9.60;99.90;;;;;;5074841;28;20539;-83
2021/11/08 07:13:30;;;;;;;9.97;2.60;;;9.60;99.90;;;;;;5074818;28;21029;-83
2021/11/08 07:15:56;;;;;;;8.13;2.80;;;9.60;99.90;;;;;;5074625;28;20529;-83
2021/11/08 07:18:23;;;;;;;12.13;2.87;;;9.70;99.90;;;;;;5074291;28;20490;-83
2021/11/08 07:20:50;;;;;;;11.57;3.40;;;9.70;99.90;;;;;;5077635;28;21218;-83
2021/11/08 07:23:17;;;;;;;11.23;2.80;;;9.70;99.90;;;;;;5077528;28;20475;-83
2021/11/08 07:25:45;;;;;;;6.10;2.37;;;9.70;99.90;;;;;;5074063;28;20472;-83
2021/11/08 07:28:14;;;;;;;8.53;2.67;;;9.70;99.90;;;;;;5073650;28;20527;-83
2021/11/08 07:30:43;;;;;;;13.73;3.40;;;9.80;99.90;;;;;;5073894;28;20450;-82
2021/11/08 07:33:10;;;;;;;15.23;3.40;;;9.80;99.90;;;;;;5073394;28;20528;-83
2021/11/08 07:35:37;;;;;;;9.77;2.90;;;9.80;99.90;;;;;;5074049;28;20483;-84
2021/11/08 07:38:04;;;;;;;6.83;2.77;;;9.80;99.90;;;;;;5074106;28;20447;-83
2021/11/08 07:40:32;;;;;;;8.23;3.17;;;9.90;99.90;;;;;;5073528;28;20878;-82
2021/11/08 07:43:00;;;;;;;9.80;3.80;;;9.90;99.90;;;;;;5073445;28;20511;-82
2021/11/08 07:45:26;;;;;;;5.93;2.93;;;9.90;99.90;;;;;;5073102;28;20843;-82
2021/11/08 07:47:53;;;;;;;5.33;2.67;;;10.00;99.90;;;;;;5073286;28;20451;-82
2021/11/08 07:50:20;;;;;;;8.93;3.13;;;10.00;99.90;;;;;;5073009;28;20479;-82
2021/11/08 07:52:46;;;;;;;18.50;3.63;;;10.00;99.90;;;;;;5073212;28;20531;-82
2021/11/08 07:55:13;;;;;;;7.37;2.63;;;10.00;99.90;;;;;;5073052;28;20811;-82
2021/11/08 07:57:40;;;;;;;10.50;2.43;;;10.10;99.90;;;;;;5073352;28;20451;-82
2021/11/08 08:00:10;;;;;;;9.07;2.37;;;10.20;99.90;;;;;;5057051;28;21011;-83
2021/11/08 08:02:37;;;;;;;9.50;3.30;;;10.20;99.90;;;;;;5073545;28;20502;-82
2021/11/08 08:05:04;;;;;;;7.30;2.40;;;10.30;99.90;;;;;;5073668;28;20486;-83
2021/11/08 08:07:30;;;;;;;7.73;2.50;;;10.40;99.90;;;;;;5073395;28;20562;-83
2021/11/08 08:09:57;;;;;;;15.30;2.63;;;10.40;99.90;;;;;;5073174;28;20471;-84
2021/11/08 08:12:23;;;;;;;10.27;2.80;;;10.60;99.90;;;;;;5073368;28;20475;-84
2021/11/08 08:14:50;;;;;;;11.50;3.13;;;10.70;99.90;;;;;;5073461;28;20486;-84
2021/11/08 08:17:18;;;;;;;6.37;2.30;;;10.80;99.90;;;;;;5073063;28;20447;-86
2021/11/08 08:19:47;;;;;;;7.17;3.30;;;10.90;99.90;;;;;;5071396;28;20508;-86
2021/11/08 08:22:13;;;;;;;13.93;3.70;;;11.10;99.90;;;;;;5073667;28;21001;-85
2021/11/08 08:24:40;;;;;;;6.00;2.07;;;11.30;99.90;;;;;;5073776;28;20471;-86
2021/11/08 08:27:07;;;;;;;14.07;3.43;;;11.30;99.90;;;;;;5072970;28;20471;-85
2021/11/08 08:29:35;;;;;;;4.20;2.40;;;11.40;99.90;;;;;;5073105;28;20479;-83
2021/11/08 08:32:02;;;;;;;8.77;3.97;;;11.40;99.90;;;;;;5073141;28;20811;-83
2021/11/08 08:34:30;;;;;;;6.97;3.57;;;11.50;99.90;;;;;;5073131;28;20475;-83
2021/11/08 08:36:58;;;;;;;10.07;3.37;;;11.50;99.90;;;;;;5073049;28;20953;-83
2021/11/08 08:39:25;;;;;;;7.90;3.10;;;11.60;99.90;;;;;;5073181;28;20466;-83
2021/11/08 08:41:53;;;;;;;10.27;4.90;;;11.60;99.90;;;;;;5073132;28;20471;-83
2021/11/08 08:44:20;;;;;;;10.10;3.10;;;11.60;99.90;;;;;;5072839;28;20565;-82
2021/11/08 08:46:47;;;;;;;10.10;2.50;;;11.70;99.90;;;;;;5073051;28;20502;-85
2021/11/08 08:49:15;;;;;;;4.50;2.00;;;11.80;99.90;;;;;;5072857;28;20482;-80
2021/11/08 08:51:43;;;;;;;7.23;1.80;;;11.80;99.90;;;;;;5073159;28;20530;-91
2021/11/08 08:54:12;;;;;;;5.40;2.63;;;11.80;99.90;;;;;;5073932;28;20501;-94
2021/11/08 08:56:39;;;;;;;6.87;2.20;;;11.90;99.90;;;;;;5068057;28;20447;-92
2021/11/08 08:59:06;;;;;;;4.17;1.90;;;11.90;99.90;;;;;;5074169;28;20447;-93
2021/11/08 09:01:32;;;;;;;5.80;2.20;;;12.20;99.90;;;;;;5074125;28;20475;-91
2021/11/08 09:03:59;;;;;;;8.50;2.00;;;11.90;99.90;;;;;;5072735;28;21029;-92
2021/11/08 09:06:27;;;;;;;8.03;2.70;;;11.80;99.90;;;;;;5073946;28;21013;-92
2021/11/08 09:08:56;;;;;;;8.70;1.97;;;11.80;99.90;;;;;;5073720;28;20569;-84
2021/11/08 09:11:23;;;;;;;15.90;3.00;;;11.70;99.90;;;;;;5073156;28;20526;-85
2021/11/08 09:13:50;;;;;;;3.33;1.73;;;11.60;99.90;;;;;;5072599;28;20439;-85
2021/11/08 09:16:18;;;;;;;5.80;1.97;;;11.50;99.90;;;;;;5069078;28;20531;-86
2021/11/08 09:18:48;;;;;;;6.27;2.27;;;11.40;99.90;;;;;;5070052;28;20486;-86
2021/11/08 09:21:15;;;;;;;5.57;2.60;;;11.30;99.90;;;;;;5072026;28;20478;-86
2021/11/08 09:23:42;;;;;;;2.47;2.00;;;11.30;99.90;;;;;;5072277;28;20566;-86
2021/11/08 09:26:10;;;;;;;4.37;1.77;;;11.30;99.90;;;;;;5070213;28;21184;-85
2021/11/08 09:28:38;;;;;;;6.10;1.70;;;11.30;99.90;;;;;;5075373;28;20534;-84
2021/11/08 09:31:04;;;;;;;6.53;2.00;;;11.40;99.90;;;;;;5076252;28;20531;-85
2021/11/08 09:33:32;;;;;;;7.27;1.70;;;11.50;99.90;;;;;;5076077;28;20471;-83
2021/11/08 09:36:03;;;;;;;6.60;1.70;;;11.40;99.90;;;;;;5076436;28;20530;-86
2021/11/08 09:38:30;;;;;;;5.60;2.63;;;11.40;99.90;;;;;;5076276;28;20473;-86
2021/11/08 09:40:56;;;;;;;4.47;1.90;;;11.40;99.90;;;;;;5076621;28;20446;-86
2021/11/08 09:43:26;;;;;;;4.53;2.00;;;11.30;99.90;;;;;;5076495;28;20593;-86
2021/11/08 09:45:53;;;;;;;5.20;2.50;;;11.40;99.90;;;;;;5076584;28;20993;-86
2021/11/08 09:48:20;;;;;;;3.80;1.57;;;11.60;99.90;;;;;;5076354;28;20471;-87
2021/11/08 09:50:48;;;;;;;4.33;1.90;;;11.40;99.90;;;;;;5076508;28;20526;-87
2021/11/08 09:53:17;;;;;;;6.47;2.03;;;11.40;99.90;;;;;;5076324;28;20534;-87
2021/11/08 09:55:45;;;;;;;6.37;2.63;;;11.50;99.90;;;;;;5076362;28;20447;-86
2021/11/08 09:58:12;;;;;;;5.00;2.40;;;11.50;99.90;;;;;;5076287;28;20811;-86
2021/11/08 10:00:47;;;;;;;9.73;2.20;;;11.60;99.90;;;;;;5076138;28;20447;-86
2021/11/08 10:03:18;;;;;;;5.03;2.33;;;11.50;99.90;;;;;;5076224;28;20479;-86
2021/11/08 10:05:47;;;;;;;5.47;1.90;;;11.50;99.90;;;;;;5076046;28;20482;-86
2021/11/08 10:08:15;;;;;;;8.47;2.40;;;11.50;99.90;;;;;;5075613;28;20497;-87
2021/11/08 10:10:42;;;;;;;6.10;2.10;;;11.60;99.90;;;;;;5076151;28;20466;-86
2021/11/08 10:13:12;;;;;;;8.43;2.20;;;11.60;99.90;;;;;;5076120;28;20538;-86
2021/11/08 10:15:41;;;;;;;7.40;2.70;;;11.60;99.90;;;;;;5075765;28;20938;-87
2021/11/08 10:18:10;;;;;;;5.13;2.40;;;11.60;99.90;;;;;;5064431;28;20872;-86
2021/11/08 10:20:38;;;;;;;5.43;2.13;;;11.50;99.90;;;;;;5075704;28;20451;-87
2021/11/08 10:23:06;;;;;;;5.43;2.93;;;11.50;99.90;;;;;;5075915;28;20578;-87
2021/11/08 10:25:36;;;;;;;6.07;2.13;;;11.50;99.90;;;;;;5075666;28;20529;-85
2021/11/08 10:28:07;;;;;;;6.37;2.07;;;11.50;99.90;;;;;;5075697;28;20852;-86
2021/11/08 10:30:36;;;;;;;3.50;1.83;;;11.50;99.90;;;;;;5075768;28;20447;-87
2021/11/08 10:33:17;;;;;;;4.73;2.00;;;11.70;99.90;;;;;;5075749;28;20530;-86
2021/11/08 10:35:47;;;;;;;8.30;2.10;;;11.80;99.90;;;;;;5070318;28;20435;-87
2021/11/08 10:38:17;;;;;;;8.93;3.00;;;11.80;99.90;;;;;;5075969;28;20515;-87
2021/11/08 10:40:51;;;;;;;7.77;2.27;;;11.90;99.90;;;;;;5075099;28;20534;-86
2021/11/08 10:43:29;;;;;;;6.80;2.10;;;11.90;99.90;;;;;;5075318;28;20463;-87
2021/11/08 10:45:59;;;;;;;7.93;2.97;;;12.00;99.90;;;;;;5075565;28;20502;-87
2021/11/08 10:48:31;;;;;;;8.10;2.00;;;12.10;99.90;;;;;;5074794;28;20535;-86
2021/11/08 10:51:01;;;;;;;4.47;2.53;;;12.20;99.90;;;;;;5073256;28;20522;-86
2021/11/08 10:53:30;;;;;;;8.20;2.93;;;12.30;99.90;;;;;;5074345;28;20486;-87
2021/11/08 10:56:06;;;;;;;8.83;2.70;;;12.40;99.90;;;;;;5074927;28;20860;-89
2021/11/08 10:58:33;;;;;;;9.57;2.73;;;12.50;99.90;;;;;;5075324;28;20489;-88
2021/11/08 11:01:02;;;;;;;6.40;2.73;;;12.60;99.90;;;;;;5074935;28;20513;-89
2021/11/08 11:03:32;;;;;;;5.77;1.80;;;12.70;99.90;;;;;;5074892;28;20483;-89
2021/11/08 11:06:02;;;;;;;5.57;2.10;;;12.80;99.90;;;;;;5075368;28;20873;-88
2021/11/08 11:08:29;;;;;;;3.53;1.70;;;12.90;99.90;;;;;;5075288;28;20566;-89
2021/11/08 11:11:01;;;;;;;3.50;2.10;;;13.10;99.90;;;;;;5075286;28;20443;-89
2021/11/08 11:13:30;;;;;;;5.20;2.00;;;13.20;99.90;;;;;;5075271;28;20455;-89
2021/11/08 11:16:02;;;;;;;9.87;2.13;;;13.30;99.90;;;;;;5075184;28;20505;-89
2021/11/08 11:18:34;;;;;;;7.63;2.33;;;13.50;99.90;;;;;;5075103;28;20449;-89
2021/11/08 11:21:18;;;;;;;10.03;2.67;;;13.50;99.90;;;;;;5074871;28;20480;-89
2021/11/08 11:23:49;;;;;;;5.27;2.20;;;13.60;99.90;;;;;;5072227;28;20522;-84
2021/11/08 11:26:18;;;;;;;4.00;1.63;;;13.50;99.90;;;;;;5079625;28;20479;-95
2021/11/08 11:28:48;;;;;;;5.50;2.80;;;13.50;99.90;;;;;;5079350;28;20447;-95
2021/11/08 11:31:19;;;;;;;10.57;2.40;;;13.40;99.90;;;;;;5084311;28;20566;-95
2021/11/08 11:33:49;;;;;;;8.10;1.67;;;13.30;99.90;;;;;;5078478;28;20447;-94
2021/11/08 11:36:18;;;;;;;5.10;1.80;;;13.40;99.90;;;;;;5082368;28;20470;-95
2021/11/08 11:38:48;;;;;;;6.10;2.03;;;13.30;99.90;;;;;;5079966;28;20493;-96
2021/11/08 11:41:17;;;;;;;10.83;2.77;;;13.40;99.90;;;;;;5080242;28;20478;-95
2021/11/08 11:43:46;;;;;;;13.70;2.30;;;13.60;99.90;;;;;;5080519;28;20525;-96
2021/11/08 11:46:16;;;;;;;7.00;2.57;;;13.20;99.90;;;;;;5080944;28;20885;-95
2021/11/08 11:48:43;;;;;;;7.13;2.50;;;13.20;99.90;;;;;;5081143;28;20458;-96
2021/11/08 11:51:14;;;;;;;4.93;1.77;;;13.30;99.90;;;;;;5079765;28;20459;-95
2021/11/08 11:53:41;;;;;;;4.20;1.90;;;13.20;99.90;;;;;;5080519;28;20447;-96
2021/11/08 11:56:08;;;;;;;5.33;2.47;;;13.20;99.90;;;;;;5079178;28;20455;-94
2021/11/08 11:58:36;;;;;;;5.83;2.87;;;13.30;99.90;;;;;;5079758;28;20478;-95
2021/11/08 12:01:04;;;;;;;5.27;1.77;;;13.30;99.90;;;;;;5078965;28;20451;-96
2021/11/08 12:03:32;;;;;;;6.00;1.87;;;13.40;99.90;;;;;;5080685;28;20474;-95
2021/11/08 12:06:00;;;;;;;7.03;2.10;;;13.60;99.90;;;;;;5079061;28;20439;-94
2021/11/08 12:08:34;;;;;;;7.37;2.47;;;13.40;99.90;;;;;;5077462;28;20450;-95
2021/11/08 12:11:02;;;;;;;13.43;1.60;;;13.30;99.90;;;;;;5077854;28;20446;-94
2021/11/08 12:13:30;;;;;;;6.00;1.90;;;13.20;99.90;;;;;;5079208;28;20478;-95
2021/11/08 12:15:59;;;;;;;7.00;2.80;;;13.20;99.90;;;;;;5078095;28;20440;-94
2021/11/08 12:18:26;;;;;;;6.40;2.40;;;13.10;99.90;;;;;;5071767;28;20501;-95
2021/11/08 12:20:56;;;;;;;5.53;1.90;;;12.80;99.90;;;;;;5073337;28;20471;-94
2021/11/08 12:23:24;;;;;;;6.60;1.53;;;13.00;99.90;;;;;;5076454;28;20485;-93
2021/11/08 12:25:53;;;;;;;8.43;2.37;;;12.90;99.90;;;;;;5077125;28;20861;-94
2021/11/08 12:28:22;;;;;;;5.77;1.97;;;13.10;99.90;;;;;;5075764;28;20481;-94
2021/11/08 12:30:52;;;;;;;7.43;1.80;;;13.30;99.90;;;;;;5076057;28;20447;-93
2021/11/08 12:33:29;;;;;;;4.30;1.73;;;13.00;99.90;;;;;;5076500;28;20513;-93
2021/11/08 12:35:58;;;;;;;8.93;2.10;;;13.10;99.90;;;;;;5075809;28;20459;-93
2021/11/08 12:38:28;;;;;;;5.40;1.63;;;12.70;99.90;;;;;;5076864;28;20474;-92
2021/11/08 12:41:09;;;;;;;4.90;1.30;;;13.00;99.90;;;;;;5073285;28;20448;-92
2021/11/08 12:43:39;;;;;;;5.30;2.63;;;13.00;99.90;;;;;;5069537;28;20861;-91
2021/11/08 12:46:13;;;;;;;4.03;1.77;;;12.90;99.90;;;;;;5061696;28;20981;-87
2021/11/08 12:48:40;;;;;;;10.17;1.70;;;12.90;99.90;;;;;;5073498;28;20446;-91
2021/11/08 12:51:08;;;;;;;13.10;2.40;;;13.00;99.90;;;;;;5073065;28;20440;-93
2021/11/08 12:53:38;;;;;;;6.33;1.70;;;13.10;99.90;;;;;;5073663;28;20455;-92
2021/11/08 12:56:22;;;;;;;4.90;2.10;;;13.10;99.90;;;;;;5073456;28;20479;-93
2021/11/08 12:58:51;;;;;;;9.33;1.40;;;13.10;99.90;;;;;;5073618;28;20440;-92
2021/11/08 13:01:21;;;;;;;4.53;1.60;;;13.20;99.90;;;;;;5073733;28;20964;-90
2021/11/08 13:03:51;;;;;;;7.33;1.90;;;13.20;99.90;;;;;;5073084;28;20474;-91
2021/11/08 13:06:25;;;;;;;8.87;2.03;;;13.20;99.90;;;;;;5073583;28;20454;-91
2021/11/08 13:09:04;;;;;;;3.53;1.57;;;13.20;99.90;;;;;;5073701;28;20541;-92
2021/11/08 13:11:40;;;;;;;4.80;1.33;;;13.10;99.90;;;;;;5073361;28;20992;-92
2021/11/08 13:14:07;;;;;;;3.60;1.50;;;13.10;99.90;;;;;;5061546;28;20443;-92
2021/11/08 13:16:37;;;;;;;5.80;1.37;;;13.00;99.90;;;;;;5073232;28;20453;-91
2021/11/08 13:19:05;;;;;;;7.70;2.17;;;12.90;99.90;;;;;;5073445;28;20989;-93
2021/11/08 13:21:32;;;;;;;5.13;2.27;;;12.70;99.90;;;;;;5068688;28;20474;-90
2021/11/08 13:23:59;;;;;;;3.00;1.60;;;12.60;99.90;;;;;;5073173;28;20524;-91
2021/11/08 13:26:27;;;;;;;8.00;1.60;;;12.50;99.90;;;;;;5073198;28;20475;-92
2021/11/08 13:28:55;;;;;;;6.30;1.70;;;12.40;99.90;;;;;;5073533;28;20810;-92
2021/11/08 13:31:22;;;;;;;5.23;2.33;;;12.20;99.90;;;;;;5073399;28;20865;-90
2021/11/08 13:33:51;;;;;;;8.63;2.40;;;12.30;99.90;;;;;;5072655;28;20451;-91
2021/11/08 13:36:18;;;;;;;10.50;2.10;;;12.20;99.90;;;;;;5073504;28;20478;-91
2021/11/08 13:38:47;;;;;;;6.40;1.90;;;12.20;99.90;;;;;;5073325;28;20448;-90
2021/11/08 13:41:16;;;;;;;8.03;2.10;;;12.20;99.90;;;;;;5073626;28;20938;-90
2021/11/08 13:43:45;;;;;;;6.17;1.40;;;12.00;99.90;;;;;;5077816;28;20450;-89
2021/11/08 13:46:16;;;;;;;5.10;1.60;;;11.90;99.90;;;;;;5071681;28;20482;-90
2021/11/08 13:48:44;;;;;;;8.93;1.70;;;11.80;99.90;;;;;;5072271;28;20447;-89
2021/11/08 13:51:21;;;;;;;8.13;1.83;;;11.70;99.90;;;;;;5072150;28;20454;-89
2021/11/08 13:53:51;;;;;;;9.93;2.10;;;11.80;99.90;;;;;;5072938;28;20455;-90
2021/11/08 13:56:18;;;;;;;4.70;1.20;;;11.70;99.90;;;;;;5073001;28;20958;-87
2021/11/08 13:58:52;;;;;;;8.10;1.70;;;11.70;99.90;;;;;;5072325;28;20454;-88
2021/11/08 14:01:21;;;;;;;8.27;2.03;;;11.70;99.90;;;;;;5072920;28;20771;-88
2021/11/08 14:03:50;;;;;;;6.40;2.10;;;11.80;99.90;;;;;;5072738;28;20494;-88
2021/11/08 14:06:27;;;;;;;5.77;2.27;;;11.80;99.90;;;;;;5072486;28;20539;-87
2021/11/08 14:08:54;;;;;;;4.80;1.80;;;11.90;99.90;;;;;;5072585;28;20526;-88
2021/11/08 14:11:31;;;;;;;9.30;2.30;;;11.90;99.90;;;;;;5072863;28;20440;-86
2021/11/08 14:14:05;;;;;;;5.50;1.63;;;11.90;99.90;;;;;;5073163;28;20447;-86
2021/11/08 14:16:34;;;;;;;7.13;1.63;;;11.90;99.90;;;;;;5076833;28;20482;-86
2021/11/08 14:19:00;;;;;;;8.23;2.20;;;11.90;99.90;;;;;;5076345;28;20578;-87
2021/11/08 14:21:30;;;;;;;4.80;1.90;;;11.80;99.90;;;;;;5076692;28;20490;-87